createdAt,value
2023-02-23T08:41:06.447Z,-10.45
2023-02-23T08:46:09.771Z,-10.12
2023-02-23T08:51:14.573Z,-9.69
2023-02-23T08:56:19.288Z,-9.50
2023-02-23T09:01:22.998Z,-9.46
2023-02-23T09:06:26.988Z,-9.45
2023-02-23T09:11:31.706Z,-9.21
2023-02-23T09:16:35.690Z,-9.06
2023-02-23T09:21:38.968Z,-8.99
2023-02-23T09:26:45.846Z,-8.72
2023-02-23T09:31:51.205Z,-8.49
2023-02-23T09:36:58.021Z,-8.37
2023-02-23T09:42:11.383Z,-8.17
2023-02-23T09:47:22.764Z,-8.01
2023-02-23T09:52:28.337Z,-7.70
2023-02-23T09:57:37.707Z,-7.41
2023-02-23T10:02:51.967Z,-7.25
2023-02-23T10:07:57.648Z,-6.88
2023-02-23T10:13:07.985Z,-6.82
2023-02-23T10:18:15.924Z,-6.63
2023-02-23T10:23:22.830Z,-6.28
2023-02-23T10:28:28.290Z,-6.24
2023-02-23T10:33:33.872Z,-6.31
2023-02-23T10:38:37.373Z,-6.07
2023-02-23T10:43:44.792Z,-6.21
2023-02-23T10:48:48.495Z,-5.91
2023-02-23T10:53:52.888Z,-5.83
2023-02-23T10:58:59.205Z,-5.42
2023-02-23T11:04:14.440Z,-5.04
2023-02-23T11:09:33.128Z,-4.63
2023-02-23T11:14:47.096Z,-4.78
2023-02-23T11:19:50.422Z,-4.72
2023-02-23T11:24:55.541Z,-4.51
2023-02-23T11:30:07.200Z,-4.68
2023-02-23T11:35:16.472Z,-4.62
2023-02-23T11:40:22.465Z,-4.33
2023-02-23T11:45:29.253Z,-4.05
2023-02-23T11:50:35.399Z,-3.92
2023-02-23T11:55:39.336Z,-3.72
2023-02-23T12:00:44.148Z,-3.84
2023-02-23T12:05:51.776Z,-3.93
2023-02-23T12:10:59.166Z,-3.76
2023-02-23T12:16:05.822Z,-3.60
2023-02-23T12:21:16.858Z,-3.52
2023-02-23T12:26:23.999Z,-3.40
2023-02-23T12:31:32.228Z,-3.20
2023-02-23T12:36:39.511Z,-3.43
2023-02-23T12:41:46.427Z,-3.05
2023-02-23T12:46:54.524Z,-2.99
2023-02-23T12:52:02.106Z,-3.06
2023-02-23T12:57:15.236Z,-3.00
2023-02-23T13:02:24.057Z,-2.84
2023-02-23T13:07:34.503Z,-2.85
2023-02-23T13:12:44.977Z,-3.07
2023-02-23T13:17:51.885Z,-3.01
2023-02-23T13:22:59.636Z,-2.93
2023-02-23T13:28:03.125Z,-3.11
2023-02-23T13:33:14.450Z,-3.40
2023-02-23T13:38:24.193Z,-3.48
2023-02-23T13:43:30.454Z,-3.38
2023-02-23T13:48:56.844Z,-3.48
2023-02-23T13:54:07.658Z,-3.65
2023-02-23T13:59:16.805Z,-3.94
2023-02-23T14:04:23.390Z,-4.11
2023-02-23T14:09:31.845Z,-4.17
2023-02-23T14:14:44.412Z,-4.26
2023-02-23T14:20:06.518Z,-4.43
2023-02-23T14:25:29.053Z,-4.51
2023-02-23T14:30:45.043Z,-4.60
2023-02-23T14:35:49.331Z,-4.74
2023-02-23T14:40:55.019Z,-4.82
2023-02-23T14:46:02.007Z,-5.13
2023-02-23T14:51:17.032Z,-5.18
2023-02-23T14:56:21.456Z,-5.21
2023-02-23T15:01:37.301Z,-5.16
2023-02-23T15:06:42.544Z,-5.22
2023-02-23T15:11:49.856Z,-5.25
2023-02-23T15:16:56.892Z,-5.23
2023-02-23T15:22:01.436Z,-5.24
2023-02-23T15:27:04.964Z,-5.36
2023-02-23T15:32:16.143Z,-5.46
2023-02-23T15:37:25.529Z,-5.66
2023-02-23T15:42:32.025Z,-5.78
2023-02-23T15:47:38.287Z,-5.84
2023-02-23T15:52:47.790Z,-5.95
2023-02-23T15:57:54.299Z,-5.99
2023-02-23T16:02:59.101Z,-6.01
2023-02-23T16:08:06.126Z,-6.12
2023-02-23T16:13:12.865Z,-6.26
2023-02-23T16:18:19.156Z,-6.29
2023-02-23T16:23:33.211Z,-6.39
2023-02-23T16:28:43.607Z,-6.51
2023-02-23T16:33:52.793Z,-6.61
2023-02-23T16:38:58.806Z,-6.65
2023-02-23T16:44:06.019Z,-6.71
2023-02-23T16:49:13.499Z,-6.73
2023-02-23T16:54:16.876Z,-6.70
2023-02-23T16:59:20.438Z,-6.85
2023-02-23T17:04:25.319Z,-6.87
2023-02-23T17:09:28.646Z,-6.91
2023-02-23T17:14:33.013Z,-6.97
2023-02-23T17:19:37.968Z,-6.95
2023-02-23T17:24:41.533Z,-6.99
2023-02-23T17:29:44.889Z,-7.04
2023-02-23T17:34:52.125Z,-7.22
2023-02-23T17:39:55.363Z,-7.23
2023-02-23T17:44:58.790Z,-7.25
2023-02-23T17:50:03.610Z,-7.28
2023-02-23T17:55:10.226Z,-7.24
2023-02-23T18:00:15.614Z,-7.36
2023-02-23T18:05:20.624Z,-7.33
2023-02-23T18:10:25.350Z,-7.33
2023-02-23T18:15:28.941Z,-7.38
2023-02-23T18:20:33.645Z,-7.44
2023-02-23T18:25:39.354Z,-7.45
2023-02-23T18:30:43.426Z,-7.44
2023-02-23T18:35:48.197Z,-7.50
2023-02-23T18:40:53.948Z,-7.36
2023-02-23T18:45:57.833Z,-7.51
2023-02-23T18:51:05.652Z,-7.54
2023-02-23T18:56:09.753Z,-7.63
2023-02-23T19:01:13.713Z,-7.61
2023-02-23T19:06:18.925Z,-7.60
2023-02-23T19:11:24.010Z,-7.70
2023-02-23T19:16:28.441Z,-7.68
2023-02-23T19:21:33.221Z,-7.72
2023-02-23T19:26:37.310Z,-7.76
2023-02-23T19:31:40.741Z,-7.80
2023-02-23T19:36:46.433Z,-7.85
2023-02-23T19:41:49.759Z,-8.28
2023-02-23T19:46:53.058Z,-7.90
2023-02-23T19:51:57.850Z,-8.18
2023-02-23T19:57:01.264Z,-8.69
2023-02-23T20:02:04.679Z,-8.85
2023-02-23T20:07:09.855Z,-8.84
2023-02-23T20:12:13.255Z,-8.68
2023-02-23T20:17:16.572Z,-8.82
2023-02-23T20:22:21.621Z,-8.94
2023-02-23T20:27:30.322Z,-9.05
2023-02-23T20:32:33.709Z,-8.98
2023-02-23T20:37:38.470Z,-9.16
2023-02-23T20:42:43.214Z,-9.09
2023-02-23T20:47:46.935Z,-9.17
2023-02-23T20:52:53.991Z,-9.92
2023-02-23T20:57:58.001Z,-9.25
2023-02-23T21:03:01.599Z,-9.29
2023-02-23T21:08:07.142Z,-9.13
2023-02-23T21:13:11.678Z,-9.21
2023-02-23T21:18:14.951Z,-9.26
2023-02-23T21:23:21.521Z,-9.25
2023-02-23T21:28:24.836Z,-9.13
2023-02-23T21:33:28.129Z,-9.42
2023-02-23T21:38:34.611Z,-9.38
2023-02-23T21:43:38.574Z,-9.25
2023-02-23T21:48:41.889Z,-9.19
2023-02-23T21:53:47.085Z,-9.24
2023-02-23T21:58:51.499Z,-9.23
2023-02-23T22:03:54.998Z,-9.13
2023-02-23T22:08:59.674Z,-9.21
2023-02-23T22:14:05.129Z,-9.21
2023-02-23T22:19:10.895Z,-9.16
2023-02-23T22:24:16.461Z,-9.16
2023-02-23T22:29:19.723Z,-9.23
2023-02-23T22:34:25.329Z,-9.20
